Main page
METAR-TAF:

METAR-TAF

Airports :

Damascus, Syria

Damascus International Airport

latitude: 33-25N, longitude: 036-31E, elevation: 608 m

Current weather observation

The report was made 30 minutes ago, at 20:00 UTC
Wind 8 kt from the South/Southwest
Temperature 24°C
Humidity 50%
Pressure 1013 hPa
Visibility 10 km or more
no clouds below 1500 m and no cumulonimbus

METAR: OSDI 232000Z 21008KT CAVOK 24/13 Q1013

Time: 23:30 (20:30 UTC)

Forecast

The report was made 4 hours and 10 minutes ago, at 16:20 UTC
Forecast valid from 23 at 18 UTC to 24 at 24 UTC
Wind 3 kt from variable directions
Visibility 10 km or more
no clouds below 1500 m and no cumulonimbus
Temporary
from 24 at 09 UTC to 24 at 18 UTC
Wind 10 kt from the Southwest
Visibility 10 km or more
no clouds below 1500 m and no cumulonimbus

TAF: OSDI 231620Z 2318/2424 VRB03KT CAVOK TEMPO 2409/2418 22010KT CAVOK

Weather observations and forecasts of more than 4000 airports (METAR and TAF reports).

The available stations are represented by yellow and red dots on the map.

Hover mouse over dot to see the name of the station.

Then click to see weather observations and forecasts.

To change the map : click on the green buttons with a black cross to zoom in, on the green button with a dash to zoom out, or on the green arrows for adjacent maps.


METAR-TAF: